sensor_id;sensor_type;location;lat;lon;timestamp;P1;durP1;ratioP1;P2;durP2;ratioP2
64641;SDS011;59936;51.490;5.436;2023-05-23T00:04:44;30.30;;;20.20;;
64641;SDS011;59936;51.490;5.436;2023-05-23T00:07:14;30.10;;;20.90;;
64641;SDS011;59936;51.490;5.436;2023-05-23T00:09:43;34.20;;;21.00;;
64641;SDS011;59936;51.490;5.436;2023-05-23T00:12:11;23.00;;;17.90;;
64641;SDS011;59936;51.490;5.436;2023-05-23T00:14:40;19.40;;;14.90;;
64641;SDS011;59936;51.490;5.436;2023-05-23T00:17:09;25.40;;;17.90;;
64641;SDS011;59936;51.490;5.436;2023-05-23T00:19:37;30.50;;;20.00;;
64641;SDS011;59936;51.490;5.436;2023-05-23T00:22:06;25.40;;;17.10;;
64641;SDS011;59936;51.490;5.436;2023-05-23T00:24:34;25.50;;;18.00;;
64641;SDS011;59936;51.490;5.436;2023-05-23T00:27:03;28.30;;;20.90;;
64641;SDS011;59936;51.490;5.436;2023-05-23T00:29:32;18.90;;;12.30;;
64641;SDS011;59936;51.490;5.436;2023-05-23T00:32:00;30.50;;;20.10;;
64641;SDS011;59936;51.490;5.436;2023-05-23T00:34:29;18.70;;;11.00;;
64641;SDS011;59936;51.490;5.436;2023-05-23T00:36:57;18.50;;;10.70;;
64641;SDS011;59936;51.490;5.436;2023-05-23T00:39:26;25.50;;;18.40;;
64641;SDS011;59936;51.490;5.436;2023-05-23T00:41:55;23.60;;;16.60;;
64641;SDS011;59936;51.490;5.436;2023-05-23T00:44:23;25.20;;;18.10;;
64641;SDS011;59936;51.490;5.436;2023-05-23T00:46:53;21.70;;;16.70;;
64641;SDS011;59936;51.490;5.436;2023-05-23T00:49:25;11.60;;;8.70;;
64641;SDS011;59936;51.490;5.436;2023-05-23T00:51:54;21.40;;;15.60;;
64641;SDS011;59936;51.490;5.436;2023-05-23T00:54:23;11.70;;;9.10;;
64641;SDS011;59936;51.490;5.436;2023-05-23T00:56:57;23.60;;;15.90;;
64641;SDS011;59936;51.490;5.436;2023-05-23T00:59:26;19.60;;;13.40;;
64641;SDS011;59936;51.490;5.436;2023-05-23T01:01:55;18.80;;;14.00;;
64641;SDS011;59936;51.490;5.436;2023-05-23T01:04:25;13.60;;;10.80;;
64641;SDS011;59936;51.490;5.436;2023-05-23T01:06:54;17.70;;;12.40;;
64641;SDS011;59936;51.490;5.436;2023-05-23T01:09:24;18.90;;;14.40;;
64641;SDS011;59936;51.490;5.436;2023-05-23T01:15:06;19.90;;;12.90;;
64641;SDS011;59936;51.490;5.436;2023-05-23T01:17:49;11.60;;;8.70;;
64641;SDS011;59936;51.490;5.436;2023-05-23T01:23:24;15.50;;;11.30;;
64641;SDS011;59936;51.490;5.436;2023-05-23T01:26:45;16.10;;;10.80;;
64641;SDS011;59936;51.490;5.436;2023-05-23T01:29:41;17.20;;;11.20;;
64641;SDS011;59936;51.490;5.436;2023-05-23T01:32:14;20.30;;;14.00;;
64641;SDS011;59936;51.490;5.436;2023-05-23T01:34:44;21.20;;;13.20;;
64641;SDS011;59936;51.490;5.436;2023-05-23T01:37:14;14.00;;;8.80;;
64641;SDS011;59936;51.490;5.436;2023-05-23T01:39:44;18.70;;;10.70;;
64641;SDS011;59936;51.490;5.436;2023-05-23T01:42:13;21.10;;;12.80;;
64641;SDS011;59936;51.490;5.436;2023-05-23T01:44:43;19.30;;;12.30;;
64641;SDS011;59936;51.490;5.436;2023-05-23T01:47:13;16.50;;;13.30;;
64641;SDS011;59936;51.490;5.436;2023-05-23T01:49:43;22.60;;;12.70;;
64641;SDS011;59936;51.490;5.436;2023-05-23T01:52:13;23.90;;;12.80;;
64641;SDS011;59936;51.490;5.436;2023-05-23T01:54:42;15.20;;;9.10;;
64641;SDS011;59936;51.490;5.436;2023-05-23T01:57:12;20.30;;;13.10;;
64641;SDS011;59936;51.490;5.436;2023-05-23T01:59:41;24.40;;;14.90;;
64641;SDS011;59936;51.490;5.436;2023-05-23T02:02:09;15.60;;;9.90;;
64641;SDS011;59936;51.490;5.436;2023-05-23T02:04:38;21.40;;;13.40;;
64641;SDS011;59936;51.490;5.436;2023-05-23T02:07:07;21.50;;;13.00;;
64641;SDS011;59936;51.490;5.436;2023-05-23T02:09:35;13.90;;;7.40;;
64641;SDS011;59936;51.490;5.436;2023-05-23T02:12:04;25.30;;;15.10;;
64641;SDS011;59936;51.490;5.436;2023-05-23T02:14:33;19.40;;;8.90;;
64641;SDS011;59936;51.490;5.436;2023-05-23T02:17:01;25.00;;;13.20;;
64641;SDS011;59936;51.490;5.436;2023-05-23T02:19:30;24.30;;;14.70;;
64641;SDS011;59936;51.490;5.436;2023-05-23T02:21:59;8.90;;;5.40;;
64641;SDS011;59936;51.490;5.436;2023-05-23T02:24:27;22.20;;;12.60;;
64641;SDS011;59936;51.490;5.436;2023-05-23T02:26:56;26.00;;;16.20;;
64641;SDS011;59936;51.490;5.436;2023-05-23T02:29:24;22.90;;;15.50;;
64641;SDS011;59936;51.490;5.436;2023-05-23T02:31:53;23.80;;;15.40;;
64641;SDS011;59936;51.490;5.436;2023-05-23T02:34:22;23.65;;;14.85;;
64641;SDS011;59936;51.490;5.436;2023-05-23T02:36:50;19.60;;;11.10;;
64641;SDS011;59936;51.490;5.436;2023-05-23T02:39:19;25.20;;;14.70;;
64641;SDS011;59936;51.490;5.436;2023-05-23T02:44:16;24.60;;;14.70;;
64641;SDS011;59936;51.490;5.436;2023-05-23T02:46:50;21.10;;;14.20;;
64641;SDS011;59936;51.490;5.436;2023-05-23T02:49:19;17.95;;;9.85;;
64641;SDS011;59936;51.490;5.436;2023-05-23T02:51:48;31.25;;;15.55;;
64641;SDS011;59936;51.490;5.436;2023-05-23T02:54:16;26.20;;;15.00;;
64641;SDS011;59936;51.490;5.436;2023-05-23T02:56:45;18.80;;;13.40;;
64641;SDS011;59936;51.490;5.436;2023-05-23T02:59:13;24.90;;;12.60;;
64641;SDS011;59936;51.490;5.436;2023-05-23T03:01:42;20.20;;;13.20;;
64641;SDS011;59936;51.490;5.436;2023-05-23T03:04:10;25.30;;;14.20;;
64641;SDS011;59936;51.490;5.436;2023-05-23T03:06:43;15.60;;;10.40;;
64641;SDS011;59936;51.490;5.436;2023-05-23T03:09:17;18.55;;;10.35;;
64641;SDS011;59936;51.490;5.436;2023-05-23T03:11:45;13.60;;;9.50;;
64641;SDS011;59936;51.490;5.436;2023-05-23T03:14:18;21.20;;;10.90;;
64641;SDS011;59936;51.490;5.436;2023-05-23T03:16:51;12.80;;;9.30;;
64641;SDS011;59936;51.490;5.436;2023-05-23T03:19:20;15.70;;;10.50;;
64641;SDS011;59936;51.490;5.436;2023-05-23T03:21:49;15.30;;;9.20;;
64641;SDS011;59936;51.490;5.436;2023-05-23T03:24:17;12.40;;;8.60;;
64641;SDS011;59936;51.490;5.436;2023-05-23T03:26:46;12.20;;;8.70;;
64641;SDS011;59936;51.490;5.436;2023-05-23T03:29:14;10.00;;;7.40;;
64641;SDS011;59936;51.490;5.436;2023-05-23T03:31:43;9.40;;;7.95;;
64641;SDS011;59936;51.490;5.436;2023-05-23T03:34:12;11.10;;;8.20;;
64641;SDS011;59936;51.490;5.436;2023-05-23T03:36:40;9.90;;;6.30;;
64641;SDS011;59936;51.490;5.436;2023-05-23T03:39:09;10.70;;;7.30;;
64641;SDS011;59936;51.490;5.436;2023-05-23T03:41:37;9.30;;;7.20;;
64641;SDS011;59936;51.490;5.436;2023-05-23T03:44:06;10.10;;;6.70;;
64641;SDS011;59936;51.490;5.436;2023-05-23T03:46:34;9.50;;;6.40;;
64641;SDS011;59936;51.490;5.436;2023-05-23T03:49:04;10.30;;;6.60;;
64641;SDS011;59936;51.490;5.436;2023-05-23T03:51:33;8.10;;;6.55;;
64641;SDS011;59936;51.490;5.436;2023-05-23T03:54:01;10.10;;;6.90;;
64641;SDS011;59936;51.490;5.436;2023-05-23T03:56:30;12.20;;;6.80;;
64641;SDS011;59936;51.490;5.436;2023-05-23T03:58:58;7.30;;;6.20;;
64641;SDS011;59936;51.490;5.436;2023-05-23T04:01:27;8.60;;;6.60;;
64641;SDS011;59936;51.490;5.436;2023-05-23T04:03:56;5.50;;;4.60;;
64641;SDS011;59936;51.490;5.436;2023-05-23T04:06:24;12.50;;;7.00;;
64641;SDS011;59936;51.490;5.436;2023-05-23T04:08:53;13.80;;;8.10;;
64641;SDS011;59936;51.490;5.436;2023-05-23T04:11:22;11.70;;;8.00;;
64641;SDS011;59936;51.490;5.436;2023-05-23T04:13:50;14.40;;;7.30;;
64641;SDS011;59936;51.490;5.436;2023-05-23T04:16:19;12.90;;;7.20;;
64641;SDS011;59936;51.490;5.436;2023-05-23T04:18:48;10.30;;;6.90;;
64641;SDS011;59936;51.490;5.436;2023-05-23T04:21:17;14.00;;;7.30;;
64641;SDS011;59936;51.490;5.436;2023-05-23T04:23:45;7.50;;;5.70;;
64641;SDS011;59936;51.490;5.436;2023-05-23T04:26:14;13.40;;;6.90;;
64641;SDS011;59936;51.490;5.436;2023-05-23T04:28:42;12.50;;;7.80;;
64641;SDS011;59936;51.490;5.436;2023-05-23T04:31:11;17.40;;;7.70;;
64641;SDS011;59936;51.490;5.436;2023-05-23T04:33:40;12.20;;;7.20;;
64641;SDS011;59936;51.490;5.436;2023-05-23T04:36:08;9.90;;;6.40;;
64641;SDS011;59936;51.490;5.436;2023-05-23T04:38:37;10.70;;;8.20;;
64641;SDS011;59936;51.490;5.436;2023-05-23T04:41:06;11.80;;;8.00;;
64641;SDS011;59936;51.490;5.436;2023-05-23T04:43:35;5.90;;;4.60;;
64641;SDS011;59936;51.490;5.436;2023-05-23T04:46:03;18.90;;;9.80;;
64641;SDS011;59936;51.490;5.436;2023-05-23T04:48:32;16.10;;;9.90;;
64641;SDS011;59936;51.490;5.436;2023-05-23T04:51:00;19.30;;;9.30;;
64641;SDS011;59936;51.490;5.436;2023-05-23T04:53:29;15.90;;;8.80;;
64641;SDS011;59936;51.490;5.436;2023-05-23T04:55:57;12.90;;;9.10;;
64641;SDS011;59936;51.490;5.436;2023-05-23T04:58:26;19.70;;;10.70;;
64641;SDS011;59936;51.490;5.436;2023-05-23T05:00:55;22.30;;;10.40;;
64641;SDS011;59936;51.490;5.436;2023-05-23T05:03:23;24.10;;;11.80;;
64641;SDS011;59936;51.490;5.436;2023-05-23T05:05:52;17.80;;;7.50;;
64641;SDS011;59936;51.490;5.436;2023-05-23T05:08:20;21.70;;;10.70;;
64641;SDS011;59936;51.490;5.436;2023-05-23T05:10:49;18.20;;;9.60;;
64641;SDS011;59936;51.490;5.436;2023-05-23T05:13:17;18.10;;;10.95;;
64641;SDS011;59936;51.490;5.436;2023-05-23T05:15:46;29.75;;;12.70;;
64641;SDS011;59936;51.490;5.436;2023-05-23T05:18:15;24.00;;;12.10;;
64641;SDS011;59936;51.490;5.436;2023-05-23T05:20:43;24.50;;;11.40;;
64641;SDS011;59936;51.490;5.436;2023-05-23T05:23:16;24.40;;;10.00;;
64641;SDS011;59936;51.490;5.436;2023-05-23T05:25:45;25.90;;;11.90;;
64641;SDS011;59936;51.490;5.436;2023-05-23T05:28:13;22.60;;;10.70;;
64641;SDS011;59936;51.490;5.436;2023-05-23T05:30:42;21.50;;;9.50;;
64641;SDS011;59936;51.490;5.436;2023-05-23T05:33:11;7.00;;;4.60;;
64641;SDS011;59936;51.490;5.436;2023-05-23T05:35:39;21.60;;;11.10;;
64641;SDS011;59936;51.490;5.436;2023-05-23T05:38:08;9.70;;;5.70;;
64641;SDS011;59936;51.490;5.436;2023-05-23T05:40:36;20.60;;;10.10;;
64641;SDS011;59936;51.490;5.436;2023-05-23T05:43:05;19.50;;;10.40;;
64641;SDS011;59936;51.490;5.436;2023-05-23T05:45:33;14.15;;;5.50;;
64641;SDS011;59936;51.490;5.436;2023-05-23T05:48:02;22.00;;;8.30;;
64641;SDS011;59936;51.490;5.436;2023-05-23T05:50:31;25.50;;;11.55;;
64641;SDS011;59936;51.490;5.436;2023-05-23T05:52:59;23.70;;;9.00;;
64641;SDS011;59936;51.490;5.436;2023-05-23T05:55:28;23.10;;;10.35;;
64641;SDS011;59936;51.490;5.436;2023-05-23T05:57:56;27.80;;;10.70;;
64641;SDS011;59936;51.490;5.436;2023-05-23T06:00:25;21.20;;;9.30;;
64641;SDS011;59936;51.490;5.436;2023-05-23T06:02:53;22.80;;;9.90;;
64641;SDS011;59936;51.490;5.436;2023-05-23T06:05:22;27.45;;;10.05;;
64641;SDS011;59936;51.490;5.436;2023-05-23T06:07:51;16.80;;;8.00;;
64641;SDS011;59936;51.490;5.436;2023-05-23T06:10:20;18.60;;;9.90;;
64641;SDS011;59936;51.490;5.436;2023-05-23T06:12:49;28.60;;;10.80;;
64641;SDS011;59936;51.490;5.436;2023-05-23T06:15:17;24.90;;;9.30;;
64641;SDS011;59936;51.490;5.436;2023-05-23T06:17:46;27.40;;;9.50;;
64641;SDS011;59936;51.490;5.436;2023-05-23T06:20:18;22.70;;;10.10;;
64641;SDS011;59936;51.490;5.436;2023-05-23T06:22:47;16.60;;;8.60;;
64641;SDS011;59936;51.490;5.436;2023-05-23T06:25:15;13.50;;;6.50;;
64641;SDS011;59936;51.490;5.436;2023-05-23T06:27:44;25.60;;;8.40;;
64641;SDS011;59936;51.490;5.436;2023-05-23T06:30:12;19.90;;;7.00;;
64641;SDS011;59936;51.490;5.436;2023-05-23T06:32:46;20.00;;;7.40;;
64641;SDS011;59936;51.490;5.436;2023-05-23T06:35:15;20.70;;;7.10;;
64641;SDS011;59936;51.490;5.436;2023-05-23T06:37:43;19.80;;;7.10;;
64641;SDS011;59936;51.490;5.436;2023-05-23T06:40:12;13.30;;;5.30;;
64641;SDS011;59936;51.490;5.436;2023-05-23T06:42:41;13.60;;;6.50;;
64641;SDS011;59936;51.490;5.436;2023-05-23T06:45:09;11.40;;;5.50;;
64641;SDS011;59936;51.490;5.436;2023-05-23T06:47:38;17.65;;;6.05;;
64641;SDS011;59936;51.490;5.436;2023-05-23T06:50:07;10.70;;;6.30;;
64641;SDS011;59936;51.490;5.436;2023-05-23T06:52:35;13.70;;;6.00;;
64641;SDS011;59936;51.490;5.436;2023-05-23T06:55:04;4.60;;;3.80;;
64641;SDS011;59936;51.490;5.436;2023-05-23T06:57:33;14.20;;;6.80;;
64641;SDS011;59936;51.490;5.436;2023-05-23T07:00:02;11.70;;;4.20;;
64641;SDS011;59936;51.490;5.436;2023-05-23T07:02:31;14.50;;;6.60;;
64641;SDS011;59936;51.490;5.436;2023-05-23T07:05:00;11.85;;;5.85;;
64641;SDS011;59936;51.490;5.436;2023-05-23T07:07:29;9.55;;;5.20;;
64641;SDS011;59936;51.490;5.436;2023-05-23T07:09:57;7.80;;;3.75;;
64641;SDS011;59936;51.490;5.436;2023-05-23T07:12:26;10.80;;;5.10;;
64641;SDS011;59936;51.490;5.436;2023-05-23T07:14:54;14.90;;;5.90;;
64641;SDS011;59936;51.490;5.436;2023-05-23T07:17:23;13.50;;;6.00;;
64641;SDS011;59936;51.490;5.436;2023-05-23T07:19:51;11.80;;;6.50;;
64641;SDS011;59936;51.490;5.436;2023-05-23T07:22:20;14.30;;;5.40;;
64641;SDS011;59936;51.490;5.436;2023-05-23T07:24:49;8.70;;;4.40;;
64641;SDS011;59936;51.490;5.436;2023-05-23T07:27:17;3.10;;;2.00;;
64641;SDS011;59936;51.490;5.436;2023-05-23T07:29:46;13.40;;;5.20;;
64641;SDS011;59936;51.490;5.436;2023-05-23T07:32:15;10.20;;;4.90;;
64641;SDS011;59936;51.490;5.436;2023-05-23T07:34:47;10.70;;;5.10;;
64641;SDS011;59936;51.490;5.436;2023-05-23T07:37:15;12.60;;;4.90;;
64641;SDS011;59936;51.490;5.436;2023-05-23T07:39:44;14.70;;;5.00;;
64641;SDS011;59936;51.490;5.436;2023-05-23T07:42:12;9.40;;;5.20;;
64641;SDS011;59936;51.490;5.436;2023-05-23T07:44:44;13.90;;;4.90;;
64641;SDS011;59936;51.490;5.436;2023-05-23T07:47:13;11.20;;;4.80;;
64641;SDS011;59936;51.490;5.436;2023-05-23T07:49:42;17.10;;;4.20;;
64641;SDS011;59936;51.490;5.436;2023-05-23T07:52:10;10.60;;;5.00;;
64641;SDS011;59936;51.490;5.436;2023-05-23T07:54:39;15.00;;;5.50;;
64641;SDS011;59936;51.490;5.436;2023-05-23T07:57:07;6.20;;;3.20;;
64641;SDS011;59936;51.490;5.436;2023-05-23T07:59:37;16.40;;;6.00;;
64641;SDS011;59936;51.490;5.436;2023-05-23T08:02:06;13.30;;;5.00;;
64641;SDS011;59936;51.490;5.436;2023-05-23T08:04:34;11.90;;;5.10;;
64641;SDS011;59936;51.490;5.436;2023-05-23T08:07:03;6.40;;;4.00;;
64641;SDS011;59936;51.490;5.436;2023-05-23T08:09:31;9.20;;;5.40;;
64641;SDS011;59936;51.490;5.436;2023-05-23T08:12:00;13.90;;;5.40;;
64641;SDS011;59936;51.490;5.436;2023-05-23T08:14:29;7.10;;;2.90;;
64641;SDS011;59936;51.490;5.436;2023-05-23T08:16:57;13.70;;;5.55;;
64641;SDS011;59936;51.490;5.436;2023-05-23T08:19:26;8.60;;;3.90;;
64641;SDS011;59936;51.490;5.436;2023-05-23T08:21:54;8.40;;;5.00;;
64641;SDS011;59936;51.490;5.436;2023-05-23T08:24:29;8.50;;;5.20;;
64641;SDS011;59936;51.490;5.436;2023-05-23T08:27:02;10.40;;;5.30;;
64641;SDS011;59936;51.490;5.436;2023-05-23T08:29:31;12.00;;;5.70;;
64641;SDS011;59936;51.490;5.436;2023-05-23T08:32:01;9.90;;;5.40;;
64641;SDS011;59936;51.490;5.436;2023-05-23T08:34:29;16.80;;;6.00;;
64641;SDS011;59936;51.490;5.436;2023-05-23T08:36:58;5.70;;;3.10;;
64641;SDS011;59936;51.490;5.436;2023-05-23T08:39:26;10.80;;;5.00;;
64641;SDS011;59936;51.490;5.436;2023-05-23T08:41:55;12.20;;;4.70;;
64641;SDS011;59936;51.490;5.436;2023-05-23T08:44:23;12.70;;;5.50;;
64641;SDS011;59936;51.490;5.436;2023-05-23T08:46:52;12.70;;;4.00;;
64641;SDS011;59936;51.490;5.436;2023-05-23T08:49:21;12.50;;;5.15;;
64641;SDS011;59936;51.490;5.436;2023-05-23T08:51:50;5.90;;;3.20;;
64641;SDS011;59936;51.490;5.436;2023-05-23T08:56:53;8.60;;;4.60;;
64641;SDS011;59936;51.490;5.436;2023-05-23T08:59:22;9.80;;;3.70;;
64641;SDS011;59936;51.490;5.436;2023-05-23T09:01:54;10.50;;;4.60;;
64641;SDS011;59936;51.490;5.436;2023-05-23T09:04:23;8.80;;;3.70;;
64641;SDS011;59936;51.490;5.436;2023-05-23T09:06:52;7.70;;;4.70;;
64641;SDS011;59936;51.490;5.436;2023-05-23T09:09:23;8.90;;;4.80;;
64641;SDS011;59936;51.490;5.436;2023-05-23T09:11:53;12.00;;;4.70;;
64641;SDS011;59936;51.490;5.436;2023-05-23T09:14:23;9.30;;;4.60;;
64641;SDS011;59936;51.490;5.436;2023-05-23T09:16:52;9.90;;;3.20;;
64641;SDS011;59936;51.490;5.436;2023-05-23T09:19:28;7.00;;;3.90;;
64641;SDS011;59936;51.490;5.436;2023-05-23T09:22:01;5.20;;;3.50;;
64641;SDS011;59936;51.490;5.436;2023-05-23T09:24:33;10.80;;;3.30;;
64641;SDS011;59936;51.490;5.436;2023-05-23T09:27:04;8.80;;;3.70;;
64641;SDS011;59936;51.490;5.436;2023-05-23T09:29:36;7.60;;;3.30;;
64641;SDS011;59936;51.490;5.436;2023-05-23T09:32:19;12.55;;;3.35;;
64641;SDS011;59936;51.490;5.436;2023-05-23T09:37:31;7.10;;;2.80;;
64641;SDS011;59936;51.490;5.436;2023-05-23T09:40:06;11.20;;;3.80;;
64641;SDS011;59936;51.490;5.436;2023-05-23T09:45:13;9.60;;;3.10;;
64641;SDS011;59936;51.490;5.436;2023-05-23T09:47:50;12.40;;;3.80;;
64641;SDS011;59936;51.490;5.436;2023-05-23T09:50:22;3.80;;;2.00;;
64641;SDS011;59936;51.490;5.436;2023-05-23T09:52:51;9.10;;;3.50;;
64641;SDS011;59936;51.490;5.436;2023-05-23T09:55:20;14.10;;;3.10;;
64641;SDS011;59936;51.490;5.436;2023-05-23T09:57:49;8.30;;;2.80;;
64641;SDS011;59936;51.490;5.436;2023-05-23T10:00:22;11.50;;;2.90;;
64641;SDS011;59936;51.490;5.436;2023-05-23T10:05:40;10.80;;;3.20;;
64641;SDS011;59936;51.490;5.436;2023-05-23T10:08:18;8.75;;;3.00;;
64641;SDS011;59936;51.490;5.436;2023-05-23T10:13:48;13.70;;;3.00;;
64641;SDS011;59936;51.490;5.436;2023-05-23T10:16:22;12.60;;;3.10;;
64641;SDS011;59936;51.490;5.436;2023-05-23T10:19:31;9.00;;;3.30;;
64641;SDS011;59936;51.490;5.436;2023-05-23T10:22:11;10.70;;;2.85;;
64641;SDS011;59936;51.490;5.436;2023-05-23T10:24:42;2.70;;;1.60;;
64641;SDS011;59936;51.490;5.436;2023-05-23T10:27:12;9.40;;;3.05;;
64641;SDS011;59936;51.490;5.436;2023-05-23T10:29:42;11.60;;;2.90;;
64641;SDS011;59936;51.490;5.436;2023-05-23T10:32:11;9.10;;;3.20;;
64641;SDS011;59936;51.490;5.436;2023-05-23T10:34:53;12.30;;;3.50;;
64641;SDS011;59936;51.490;5.436;2023-05-23T10:38:01;13.50;;;3.10;;
64641;SDS011;59936;51.490;5.436;2023-05-23T10:41:10;7.30;;;2.70;;
64641;SDS011;59936;51.490;5.436;2023-05-23T10:49:41;5.40;;;2.10;;
64641;SDS011;59936;51.490;5.436;2023-05-23T10:52:14;11.15;;;2.50;;
64641;SDS011;59936;51.490;5.436;2023-05-23T10:54:45;3.65;;;2.00;;
64641;SDS011;59936;51.490;5.436;2023-05-23T10:57:16;7.50;;;2.60;;
64641;SDS011;59936;51.490;5.436;2023-05-23T10:59:49;6.80;;;2.60;;
64641;SDS011;59936;51.490;5.436;2023-05-23T11:02:19;7.50;;;3.10;;
64641;SDS011;59936;51.490;5.436;2023-05-23T11:11:00;12.30;;;3.40;;
64641;SDS011;59936;51.490;5.436;2023-05-23T11:16:24;7.70;;;3.10;;
64641;SDS011;59936;51.490;5.436;2023-05-23T11:21:56;8.90;;;3.90;;
64641;SDS011;59936;51.490;5.436;2023-05-23T11:27:35;9.80;;;3.40;;
64641;SDS011;59936;51.490;5.436;2023-05-23T11:30:14;9.40;;;3.20;;
64641;SDS011;59936;51.490;5.436;2023-05-23T11:32:51;7.60;;;2.90;;
64641;SDS011;59936;51.490;5.436;2023-05-23T11:35:21;9.90;;;3.00;;
64641;SDS011;59936;51.490;5.436;2023-05-23T11:37:50;8.10;;;3.10;;
64641;SDS011;59936;51.490;5.436;2023-05-23T11:40:26;8.40;;;2.80;;
64641;SDS011;59936;51.490;5.436;2023-05-23T11:42:58;10.20;;;3.60;;
64641;SDS011;59936;51.490;5.436;2023-05-23T11:45:28;10.50;;;2.60;;
64641;SDS011;59936;51.490;5.436;2023-05-23T11:47:58;8.80;;;3.00;;
64641;SDS011;59936;51.490;5.436;2023-05-23T11:50:33;9.30;;;3.00;;
64641;SDS011;59936;51.490;5.436;2023-05-23T11:53:10;4.30;;;1.70;;
64641;SDS011;59936;51.490;5.436;2023-05-23T11:55:47;5.30;;;1.70;;
64641;SDS011;59936;51.490;5.436;2023-05-23T11:58:29;9.70;;;3.00;;
64641;SDS011;59936;51.490;5.436;2023-05-23T12:01:06;4.10;;;2.30;;
64641;SDS011;59936;51.490;5.436;2023-05-23T12:03:46;5.78;;;2.25;;
64641;SDS011;59936;51.490;5.436;2023-05-23T12:06:20;5.60;;;2.80;;
64641;SDS011;59936;51.490;5.436;2023-05-23T12:08:52;7.70;;;2.60;;
64641;SDS011;59936;51.490;5.436;2023-05-23T12:11:21;10.65;;;2.85;;
64641;SDS011;59936;51.490;5.436;2023-05-23T12:13:51;8.20;;;2.70;;
64641;SDS011;59936;51.490;5.436;2023-05-23T12:16:19;10.90;;;3.40;;
64641;SDS011;59936;51.490;5.436;2023-05-23T12:18:48;7.90;;;2.60;;
64641;SDS011;59936;51.490;5.436;2023-05-23T12:21:17;6.30;;;2.50;;
64641;SDS011;59936;51.490;5.436;2023-05-23T12:23:45;5.70;;;2.60;;
64641;SDS011;59936;51.490;5.436;2023-05-23T12:26:14;5.20;;;1.60;;
64641;SDS011;59936;51.490;5.436;2023-05-23T12:28:43;8.40;;;2.40;;
64641;SDS011;59936;51.490;5.436;2023-05-23T12:31:19;10.70;;;2.90;;
64641;SDS011;59936;51.490;5.436;2023-05-23T12:33:51;7.95;;;3.05;;
64641;SDS011;59936;51.490;5.436;2023-05-23T12:36:21;7.00;;;2.80;;
64641;SDS011;59936;51.490;5.436;2023-05-23T12:38:52;8.90;;;2.80;;
64641;SDS011;59936;51.490;5.436;2023-05-23T12:41:21;8.70;;;3.20;;
64641;SDS011;59936;51.490;5.436;2023-05-23T12:43:51;6.40;;;2.00;;
64641;SDS011;59936;51.490;5.436;2023-05-23T12:46:23;16.00;;;3.30;;
64641;SDS011;59936;51.490;5.436;2023-05-23T12:48:53;8.30;;;2.30;;
64641;SDS011;59936;51.490;5.436;2023-05-23T12:51:22;10.50;;;2.90;;
64641;SDS011;59936;51.490;5.436;2023-05-23T12:53:50;7.40;;;2.90;;
64641;SDS011;59936;51.490;5.436;2023-05-23T12:56:19;9.40;;;2.80;;
64641;SDS011;59936;51.490;5.436;2023-05-23T12:58:48;8.70;;;3.00;;
64641;SDS011;59936;51.490;5.436;2023-05-23T13:01:17;7.60;;;2.80;;
64641;SDS011;59936;51.490;5.436;2023-05-23T13:03:45;10.00;;;2.80;;
64641;SDS011;59936;51.490;5.436;2023-05-23T13:06:14;9.80;;;2.70;;
64641;SDS011;59936;51.490;5.436;2023-05-23T13:08:42;10.30;;;2.60;;
64641;SDS011;59936;51.490;5.436;2023-05-23T13:11:11;8.60;;;2.30;;
64641;SDS011;59936;51.490;5.436;2023-05-23T13:13:40;7.40;;;2.30;;
64641;SDS011;59936;51.490;5.436;2023-05-23T13:16:09;6.80;;;3.00;;
64641;SDS011;59936;51.490;5.436;2023-05-23T13:18:37;9.90;;;3.40;;
64641;SDS011;59936;51.490;5.436;2023-05-23T13:21:06;8.80;;;2.90;;
64641;SDS011;59936;51.490;5.436;2023-05-23T13:23:35;4.75;;;2.10;;
64641;SDS011;59936;51.490;5.436;2023-05-23T13:26:04;6.10;;;2.60;;
64641;SDS011;59936;51.490;5.436;2023-05-23T13:28:37;5.70;;;2.60;;
64641;SDS011;59936;51.490;5.436;2023-05-23T13:31:06;10.50;;;2.40;;
64641;SDS011;59936;51.490;5.436;2023-05-23T13:33:34;8.10;;;2.70;;
64641;SDS011;59936;51.490;5.436;2023-05-23T13:36:03;5.35;;;1.95;;
64641;SDS011;59936;51.490;5.436;2023-05-23T13:38:32;7.60;;;2.30;;
64641;SDS011;59936;51.490;5.436;2023-05-23T13:41:00;5.30;;;2.40;;
64641;SDS011;59936;51.490;5.436;2023-05-23T13:43:29;7.05;;;2.75;;
64641;SDS011;59936;51.490;5.436;2023-05-23T13:46:00;9.30;;;2.70;;
64641;SDS011;59936;51.490;5.436;2023-05-23T13:48:29;12.90;;;2.80;;
64641;SDS011;59936;51.490;5.436;2023-05-23T13:50:58;5.80;;;2.60;;
64641;SDS011;59936;51.490;5.436;2023-05-23T13:53:26;8.65;;;2.75;;
64641;SDS011;59936;51.490;5.436;2023-05-23T13:55:55;11.10;;;2.90;;
64641;SDS011;59936;51.490;5.436;2023-05-23T13:58:23;10.60;;;3.25;;
64641;SDS011;59936;51.490;5.436;2023-05-23T14:00:52;7.50;;;2.70;;
64641;SDS011;59936;51.490;5.436;2023-05-23T14:03:21;5.55;;;2.60;;
64641;SDS011;59936;51.490;5.436;2023-05-23T14:05:55;10.30;;;3.20;;
64641;SDS011;59936;51.490;5.436;2023-05-23T14:08:28;8.40;;;2.70;;
64641;SDS011;59936;51.490;5.436;2023-05-23T14:10:56;10.80;;;3.50;;
64641;SDS011;59936;51.490;5.436;2023-05-23T14:13:25;8.55;;;2.70;;
64641;SDS011;59936;51.490;5.436;2023-05-23T14:15:53;5.30;;;2.30;;
64641;SDS011;59936;51.490;5.436;2023-05-23T14:18:22;4.60;;;1.60;;
64641;SDS011;59936;51.490;5.436;2023-05-23T14:20:50;8.90;;;2.70;;
64641;SDS011;59936;51.490;5.436;2023-05-23T14:23:19;6.60;;;2.50;;
64641;SDS011;59936;51.490;5.436;2023-05-23T14:25:48;6.80;;;2.50;;
64641;SDS011;59936;51.490;5.436;2023-05-23T14:28:16;7.50;;;2.40;;
64641;SDS011;59936;51.490;5.436;2023-05-23T14:30:45;3.80;;;1.70;;
64641;SDS011;59936;51.490;5.436;2023-05-23T14:33:17;8.80;;;2.70;;
64641;SDS011;59936;51.490;5.436;2023-05-23T14:35:46;6.95;;;2.40;;
64641;SDS011;59936;51.490;5.436;2023-05-23T14:38:16;6.30;;;2.40;;
64641;SDS011;59936;51.490;5.436;2023-05-23T14:40:45;7.50;;;3.10;;
64641;SDS011;59936;51.490;5.436;2023-05-23T14:43:14;6.75;;;2.05;;
64641;SDS011;59936;51.490;5.436;2023-05-23T14:45:42;8.70;;;3.10;;
64641;SDS011;59936;51.490;5.436;2023-05-23T14:48:11;11.80;;;2.90;;
64641;SDS011;59936;51.490;5.436;2023-05-23T14:50:40;10.40;;;2.60;;
64641;SDS011;59936;51.490;5.436;2023-05-23T14:53:08;9.90;;;2.90;;
64641;SDS011;59936;51.490;5.436;2023-05-23T14:55:37;5.60;;;2.60;;
64641;SDS011;59936;51.490;5.436;2023-05-23T14:58:05;7.40;;;2.80;;
64641;SDS011;59936;51.490;5.436;2023-05-23T15:00:34;8.40;;;2.70;;
64641;SDS011;59936;51.490;5.436;2023-05-23T15:03:02;6.50;;;2.40;;
64641;SDS011;59936;51.490;5.436;2023-05-23T15:05:31;7.80;;;2.60;;
64641;SDS011;59936;51.490;5.436;2023-05-23T15:08:00;5.00;;;2.10;;
64641;SDS011;59936;51.490;5.436;2023-05-23T15:10:28;8.30;;;2.80;;
64641;SDS011;59936;51.490;5.436;2023-05-23T15:12:57;12.65;;;2.95;;
64641;SDS011;59936;51.490;5.436;2023-05-23T15:15:26;7.30;;;2.50;;
64641;SDS011;59936;51.490;5.436;2023-05-23T15:17:54;5.00;;;1.40;;
64641;SDS011;59936;51.490;5.436;2023-05-23T15:20:23;7.90;;;2.70;;
64641;SDS011;59936;51.490;5.436;2023-05-23T15:22:51;10.90;;;2.70;;
64641;SDS011;59936;51.490;5.436;2023-05-23T15:25:20;10.00;;;3.40;;
64641;SDS011;59936;51.490;5.436;2023-05-23T15:27:48;7.45;;;2.60;;
64641;SDS011;59936;51.490;5.436;2023-05-23T15:30:17;10.45;;;2.90;;
64641;SDS011;59936;51.490;5.436;2023-05-23T15:32:46;9.85;;;2.80;;
64641;SDS011;59936;51.490;5.436;2023-05-23T15:35:15;8.30;;;2.75;;
64641;SDS011;59936;51.490;5.436;2023-05-23T15:37:49;10.50;;;3.00;;
64641;SDS011;59936;51.490;5.436;2023-05-23T15:40:18;4.90;;;1.60;;